Time;durP1;ratioP1;P1;durP2;ratioP2;P2;SDS_P1;SDS_P2;PMS_P1;PMS_P2;Temp;Humidity;BMP_temperature;BMP_pressure;BME280_temperature;BME280_humidity;BME280_pressure;Samples;Min_cycle;Max_cycle;Signal;HPM_P1;HPM_P2
2022/07/20 00:00:43;;;;;;;5.43;2.47;;;24.80;50.50;;;;;;5009828;28;20038;-69
2022/07/20 00:03:11;;;;;;;8.38;2.35;;;24.80;50.80;;;;;;5010038;28;20034;-70
2022/07/20 00:05:38;;;;;;;7.55;2.60;;;24.60;51.30;;;;;;5011762;28;20026;-70
2022/07/20 00:08:04;;;;;;;3.90;2.25;;;24.70;51.20;;;;;;5013979;28;20014;-69
2022/07/20 00:13:15;;;;;;;5.43;2.42;;;24.60;51.30;;;;;;5013397;28;20175;-71
2022/07/20 00:15:43;;;;;;;4.47;2.55;;;24.60;51.50;;;;;;5013179;28;20045;-70
2022/07/20 00:18:09;;;;;;;8.90;2.90;;;24.50;51.20;;;;;;5013041;28;20034;-70
2022/07/20 00:20:35;;;;;;;7.97;2.55;;;24.50;50.50;;;;;;5013183;28;20030;-68
2022/07/20 00:23:02;;;;;;;10.63;3.22;;;24.50;50.80;;;;;;5013542;28;20084;-69
2022/07/20 00:25:28;;;;;;;8.90;2.55;;;24.40;51.10;;;;;;5012810;28;20101;-69
2022/07/20 00:27:54;;;;;;;5.50;2.53;;;24.40;50.80;;;;;;5013119;28;20197;-69
2022/07/20 00:30:20;;;;;;;11.40;2.42;;;24.30;50.90;;;;;;5012913;28;20511;-68
2022/07/20 00:32:45;;;;;;;7.10;2.70;;;24.40;50.20;;;;;;5011948;28;20101;-69
2022/07/20 00:35:13;;;;;;;7.38;2.25;;;24.40;50.20;;;;;;5013531;28;20440;-70
2022/07/20 00:37:40;;;;;;;12.13;3.40;;;24.30;50.80;;;;;;5013415;28;20045;-69
2022/07/20 00:40:07;;;;;;;11.40;3.22;;;24.30;51.30;;;;;;5013020;28;20180;-70
2022/07/20 00:42:34;;;;;;;7.75;3.05;;;24.20;51.20;;;;;;5011751;28;20623;-71
2022/07/20 00:45:00;;;;;;;5.82;2.38;;;24.20;51.60;;;;;;5012796;28;20037;-70
2022/07/20 00:47:26;;;;;;;7.15;2.20;;;24.20;51.70;;;;;;5013146;28;20036;-70
2022/07/20 00:49:51;;;;;;;4.35;2.55;;;24.10;51.90;;;;;;5012611;28;20030;-70
2022/07/20 00:52:17;;;;;;;4.55;2.40;;;24.00;51.80;;;;;;5012505;28;20112;-70
2022/07/20 00:54:45;;;;;;;6.47;2.40;;;24.00;52.20;;;;;;5012559;28;20435;-69
2022/07/20 00:57:12;;;;;;;6.05;2.55;;;23.90;52.30;;;;;;5012695;28;20045;-69
2022/07/20 00:59:38;;;;;;;6.95;2.47;;;24.00;52.50;;;;;;5012557;28;20044;-70
2022/07/20 01:02:04;;;;;;;11.15;2.88;;;23.90;52.70;;;;;;5012699;28;20022;-69
2022/07/20 01:04:30;;;;;;;4.35;2.65;;;23.80;52.80;;;;;;5012337;28;20029;-70
2022/07/20 01:06:56;;;;;;;8.02;2.70;;;23.70;53.00;;;;;;5012283;28;20120;-70
2022/07/20 01:09:22;;;;;;;3.17;2.30;;;23.70;53.10;;;;;;5012322;28;20034;-70
2022/07/20 01:11:47;;;;;;;7.40;3.13;;;23.80;53.10;;;;;;5012011;28;20163;-69
2022/07/20 01:14:14;;;;;;;9.52;2.33;;;23.70;53.60;;;;;;5012489;28;20072;-70
2022/07/20 01:16:39;;;;;;;6.28;2.35;;;23.70;53.30;;;;;;5011987;28;20365;-69
2022/07/20 01:19:06;;;;;;;6.47;2.25;;;23.70;53.30;;;;;;5012204;28;20088;-69
2022/07/20 01:21:39;;;;;;;10.00;2.95;;;23.70;53.00;;;;;;5012200;28;20041;-70
2022/07/20 01:24:05;;;;;;;5.63;2.42;;;23.60;53.30;;;;;;5012021;28;20029;-69
2022/07/20 01:26:31;;;;;;;5.78;2.40;;;23.60;53.50;;;;;;5011820;28;20030;-69
2022/07/20 01:28:57;;;;;;;5.68;2.50;;;23.60;53.30;;;;;;5012283;28;20033;-69
2022/07/20 01:31:23;;;;;;;7.13;2.42;;;23.50;53.60;;;;;;5010639;28;20090;-70
2022/07/20 01:33:49;;;;;;;7.63;2.33;;;23.50;53.70;;;;;;5011634;28;20476;-71
2022/07/20 01:36:14;;;;;;;10.98;3.17;;;23.40;53.70;;;;;;5023285;28;20033;-69
2022/07/20 01:38:40;;;;;;;9.52;2.28;;;23.40;53.50;;;;;;5031459;28;20164;-70
2022/07/20 01:41:06;;;;;;;7.63;2.80;;;23.30;53.40;;;;;;5031669;28;20049;-70
2022/07/20 01:43:32;;;;;;;7.68;2.47;;;23.40;53.10;;;;;;5031520;28;20029;-69
2022/07/20 01:45:57;;;;;;;8.18;2.35;;;23.40;52.60;;;;;;5031297;28;20056;-69
2022/07/20 01:48:23;;;;;;;4.75;2.75;;;23.50;52.20;;;;;;5031185;28;20175;-69
2022/07/20 01:50:49;;;;;;;7.55;2.60;;;23.40;52.90;;;;;;5031083;28;20040;-70
2022/07/20 01:53:14;;;;;;;6.57;2.50;;;23.30;53.50;;;;;;5031671;28;20313;-69
2022/07/20 01:55:40;;;;;;;13.05;3.05;;;23.30;53.40;;;;;;5030774;28;20473;-69
2022/07/20 01:58:06;;;;;;;6.38;3.03;;;23.40;52.30;;;;;;5030898;28;20437;-69
2022/07/20 02:00:32;;;;;;;4.63;2.67;;;23.40;51.80;;;;;;5030971;28;20105;-70
2022/07/20 02:02:57;;;;;;;7.53;2.30;;;23.50;51.80;;;;;;5030833;28;20410;-70
2022/07/20 02:05:23;;;;;;;6.72;3.08;;;23.50;52.20;;;;;;5031237;28;20618;-69
2022/07/20 02:07:49;;;;;;;12.43;2.95;;;23.40;53.20;;;;;;5030938;28;20378;-69
2022/07/20 02:10:15;;;;;;;5.50;2.17;;;23.40;53.70;;;;;;5031029;28;20105;-71
2022/07/20 02:12:41;;;;;;;5.85;2.30;;;23.30;53.90;;;;;;5030880;28;20341;-70
2022/07/20 02:15:09;;;;;;;12.95;2.90;;;23.30;52.90;;;;;;5030616;28;20509;-71
2022/07/20 02:17:34;;;;;;;;;;;23.40;53.30;;;;;;5031109;28;20575;-70
2022/07/20 02:20:00;;;;;;;8.48;2.50;;;23.30;53.70;;;;;;5031094;28;19992;-69
2022/07/20 02:22:27;;;;;;;4.65;2.42;;;23.30;54.20;;;;;;5029220;28;20030;-70
2022/07/20 02:24:53;;;;;;;9.32;2.65;;;23.30;54.40;;;;;;5030592;28;20061;-70
2022/07/20 02:27:19;;;;;;;5.75;2.40;;;23.20;54.70;;;;;;5028986;28;20026;-69
2022/07/20 02:29:45;;;;;;;15.45;2.83;;;23.10;55.00;;;;;;5030342;28;20021;-69
2022/07/20 02:32:10;;;;;;;8.55;3.03;;;23.10;55.00;;;;;;5031460;28;20454;-70
2022/07/20 02:34:36;;;;;;;9.25;2.63;;;23.10;54.90;;;;;;5029213;28;20029;-70
2022/07/20 02:37:02;;;;;;;7.65;2.83;;;23.10;54.90;;;;;;5030481;28;20541;-71
2022/07/20 02:39:27;;;;;;;4.45;2.67;;;23.00;55.00;;;;;;5030311;28;20022;-69
2022/07/20 02:41:53;;;;;;;7.78;2.50;;;23.00;55.10;;;;;;5030256;28;20039;-69
2022/07/20 02:44:19;;;;;;;7.97;2.90;;;23.00;54.50;;;;;;5029596;28;20444;-69
2022/07/20 02:46:44;;;;;;;5.20;2.10;;;23.00;54.80;;;;;;5030428;28;20197;-69
2022/07/20 02:49:10;;;;;;;6.60;2.60;;;23.00;55.10;;;;;;5030467;28;20033;-70
2022/07/20 02:51:36;;;;;;;9.13;2.75;;;22.90;55.00;;;;;;5030298;28;20017;-69
2022/07/20 02:54:01;;;;;;;5.75;2.88;;;22.90;54.60;;;;;;5030380;28;20084;-70
2022/07/20 02:56:27;;;;;;;4.43;2.67;;;23.00;54.30;;;;;;5029422;28;20042;-69
2022/07/20 02:58:53;;;;;;;6.07;2.80;;;22.90;54.70;;;;;;5030243;28;20487;-69
2022/07/20 03:01:19;;;;;;;5.57;2.50;;;22.80;54.80;;;;;;5030077;28;20038;-69
2022/07/20 03:03:44;;;;;;;5.47;2.30;;;22.80;55.00;;;;;;5030081;28;20033;-70
2022/07/20 03:06:10;;;;;;;6.10;2.78;;;22.80;55.50;;;;;;5030211;28;20048;-69
2022/07/20 03:08:36;;;;;;;8.88;3.10;;;22.80;55.60;;;;;;5029986;28;20488;-70
2022/07/20 03:11:05;;;;;;;10.30;2.67;;;22.80;55.40;;;;;;5030292;28;20037;-70
2022/07/20 03:13:30;;;;;;;5.20;2.72;;;22.70;55.30;;;;;;5030009;28;20041;-70
2022/07/20 03:15:56;;;;;;;7.45;2.50;;;22.60;55.30;;;;;;5029993;28;20033;-70
2022/07/20 03:18:21;;;;;;;3.78;2.63;;;22.60;55.50;;;;;;5030193;28;20088;-69
2022/07/20 03:20:47;;;;;;;7.75;2.92;;;22.70;54.90;;;;;;5029792;28;20355;-70
2022/07/20 03:23:13;;;;;;;7.68;2.53;;;22.70;54.40;;;;;;5030539;28;20017;-70
2022/07/20 03:25:38;;;;;;;5.93;2.95;;;22.70;54.10;;;;;;5030051;28;20076;-70
2022/07/20 03:28:04;;;;;;;9.60;2.95;;;22.60;54.90;;;;;;5030049;28;20030;-70
2022/07/20 03:30:30;;;;;;;5.45;2.55;;;22.60;54.80;;;;;;5029921;28;20034;-70
2022/07/20 03:32:56;;;;;;;5.47;2.55;;;22.60;55.30;;;;;;5029721;28;20415;-70
2022/07/20 03:35:23;;;;;;;7.70;2.85;;;22.60;54.60;;;;;;5030125;28;20026;-70
2022/07/20 03:37:49;;;;;;;5.57;2.60;;;22.60;55.10;;;;;;5029796;28;20037;-70
2022/07/20 03:40:14;;;;;;;12.07;2.97;;;22.60;55.30;;;;;;5030036;28;20038;-69
2022/07/20 03:42:40;;;;;;;4.78;2.50;;;22.60;54.80;;;;;;5033451;28;20120;-69
2022/07/20 03:45:06;;;;;;;8.82;2.67;;;22.50;54.80;;;;;;5033535;28;20622;-70
2022/07/20 03:47:33;;;;;;;11.77;2.75;;;22.60;54.50;;;;;;5033297;28;20104;-69
2022/07/20 03:49:59;;;;;;;7.03;2.75;;;22.50;54.80;;;;;;5033776;28;20401;-70
2022/07/20 03:52:25;;;;;;;10.98;3.08;;;22.50;54.90;;;;;;5033508;28;20040;-70
2022/07/20 03:54:50;;;;;;;9.98;2.65;;;22.50;54.90;;;;;;5033269;28;20053;-69
2022/07/20 03:57:16;;;;;;;6.43;2.90;;;22.50;55.20;;;;;;5033075;28;20410;-71
2022/07/20 03:59:42;;;;;;;9.13;3.10;;;22.50;55.10;;;;;;5033307;28;20045;-70
2022/07/20 04:02:08;;;;;;;9.48;2.65;;;22.50;55.90;;;;;;5033618;28;20385;-71
2022/07/20 04:04:34;;;;;;;7.20;2.83;;;22.50;55.10;;;;;;5033123;28;20033;-71
2022/07/20 04:06:59;;;;;;;9.63;3.13;;;22.50;55.30;;;;;;5032784;28;20038;-70
2022/07/20 04:09:43;;;;;;;9.40;2.85;;;22.60;54.60;;;;;;5033106;28;20399;-70
2022/07/20 04:12:17;;;;;;;6.50;2.35;;;22.50;55.00;;;;;;5033002;28;20048;-69
2022/07/20 04:14:44;;;;;;;6.90;2.50;;;22.50;55.10;;;;;;5033262;28;20056;-70
2022/07/20 04:17:10;;;;;;;15.63;2.78;;;22.50;55.50;;;;;;5033743;28;20029;-70
2022/07/20 04:19:36;;;;;;;7.53;2.42;;;22.50;54.90;;;;;;5033365;28;20088;-69
2022/07/20 04:22:02;;;;;;;7.82;2.92;;;22.50;55.70;;;;;;5031824;28;20399;-69
2022/07/20 04:24:28;;;;;;;8.43;2.50;;;22.50;55.50;;;;;;5032720;28;20030;-70
2022/07/20 04:26:54;;;;;;;11.68;3.47;;;22.50;55.10;;;;;;5032702;28;20478;-70
2022/07/20 04:29:21;;;;;;;5.55;2.50;;;22.50;54.90;;;;;;5033020;28;20029;-70
2022/07/20 04:31:47;;;;;;;6.15;2.70;;;22.50;55.10;;;;;;5032996;28;20041;-70
2022/07/20 04:34:13;;;;;;;4.97;2.58;;;22.50;56.00;;;;;;5032870;28;20026;-69
2022/07/20 04:36:39;;;;;;;7.53;2.42;;;22.50;55.60;;;;;;5032411;28;20033;-69
2022/07/20 04:39:04;;;;;;;7.95;2.40;;;22.50;54.80;;;;;;5032608;28;20037;-69
2022/07/20 04:41:30;;;;;;;5.95;2.83;;;22.60;55.30;;;;;;5032586;28;20197;-68
2022/07/20 04:43:56;;;;;;;6.88;2.70;;;22.60;55.90;;;;;;5032685;28;20076;-71
2022/07/20 04:46:21;;;;;;;7.65;2.70;;;22.60;56.00;;;;;;5032104;28;20043;-69
2022/07/20 04:48:47;;;;;;;4.85;2.42;;;22.50;55.10;;;;;;5032221;28;20034;-70
2022/07/20 04:51:13;;;;;;;11.00;3.47;;;22.60;56.30;;;;;;5031787;28;20032;-70
2022/07/20 04:53:38;;;;;;;9.45;3.95;;;22.60;57.00;;;;;;5032095;28;20025;-70
2022/07/20 04:56:09;;;;;;;8.52;2.90;;;22.60;56.40;;;;;;5032345;28;20052;-70
2022/07/20 04:58:35;;;;;;;6.07;2.92;;;22.60;56.40;;;;;;5032728;28;20048;-70
2022/07/20 05:01:01;;;;;;;10.02;2.40;;;22.60;56.00;;;;;;5032383;28;20048;-70
2022/07/20 05:03:27;;;;;;;7.07;2.97;;;22.60;56.70;;;;;;5032075;28;20042;-70
2022/07/20 05:05:53;;;;;;;7.95;3.35;;;22.70;56.50;;;;;;5031751;28;20045;-72
2022/07/20 05:08:19;;;;;;;10.50;2.72;;;22.70;56.50;;;;;;5031150;28;20220;-69
2022/07/20 05:10:44;;;;;;;6.03;2.75;;;22.70;56.40;;;;;;5031790;28;20061;-70
2022/07/20 05:13:10;;;;;;;17.48;2.83;;;22.80;57.10;;;;;;5031657;28;20103;-69
2022/07/20 05:15:36;;;;;;;15.70;3.00;;;22.80;57.00;;;;;;5031585;28;20052;-69
2022/07/20 05:18:01;;;;;;;10.55;2.90;;;22.90;56.70;;;;;;5031711;28;20091;-70
2022/07/20 05:20:27;;;;;;;10.27;2.90;;;22.90;56.40;;;;;;5031930;28;20048;-69
2022/07/20 05:22:53;;;;;;;10.88;3.08;;;23.00;55.90;;;;;;5031640;28;20029;-69
2022/07/20 05:25:18;;;;;;;7.50;2.17;;;23.10;56.60;;;;;;5030424;28;20376;-69
2022/07/20 05:27:44;;;;;;;10.55;2.95;;;23.10;56.30;;;;;;5031378;28;20029;-69
2022/07/20 05:30:10;;;;;;;10.65;2.88;;;23.20;56.00;;;;;;5031301;28;20030;-69
2022/07/20 05:32:36;;;;;;;10.13;2.53;;;23.20;56.50;;;;;;5031440;28;20490;-69
2022/07/20 05:35:03;;;;;;;10.88;2.60;;;23.30;56.90;;;;;;5031820;28;20017;-69
2022/07/20 05:37:29;;;;;;;11.27;2.75;;;23.40;56.50;;;;;;5031616;28;20026;-69
2022/07/20 05:39:55;;;;;;;10.45;2.97;;;23.40;56.40;;;;;;5031337;28;20464;-70
2022/07/20 05:42:20;;;;;;;11.02;3.30;;;23.50;56.80;;;;;;5031018;28;20084;-69
2022/07/20 05:44:46;;;;;;;5.53;2.97;;;23.60;56.10;;;;;;5016793;28;20384;-70
2022/07/20 05:47:12;;;;;;;8.55;3.17;;;23.70;57.00;;;;;;5011589;28;20084;-70
2022/07/20 05:49:37;;;;;;;9.73;2.80;;;23.70;56.60;;;;;;5011085;28;20341;-69
2022/07/20 05:52:04;;;;;;;11.52;4.88;;;23.80;56.50;;;;;;5010330;28;20478;-68
2022/07/20 05:54:30;;;;;;;10.85;5.57;;;23.90;56.00;;;;;;5010975;28;20030;-69
2022/07/20 05:56:56;;;;;;;11.93;3.60;;;24.00;56.30;;;;;;5010944;28;20040;-70
2022/07/20 05:59:21;;;;;;;9.73;3.08;;;24.10;56.20;;;;;;5011707;28;20369;-69
2022/07/20 06:01:47;;;;;;;7.72;2.55;;;24.20;56.10;;;;;;5011088;28;20490;-79
2022/07/20 06:04:14;;;;;;;15.07;3.40;;;24.30;56.10;;;;;;5009513;28;20092;-72
2022/07/20 06:06:40;;;;;;;7.43;3.05;;;24.40;56.00;;;;;;5010957;28;20046;-71
2022/07/20 06:09:06;;;;;;;14.85;4.25;;;24.50;55.80;;;;;;5011093;28;20030;-72
2022/07/20 06:11:33;;;;;;;12.15;4.28;;;24.60;55.70;;;;;;5010990;28;20025;-70
2022/07/20 06:14:00;;;;;;;7.88;3.08;;;24.80;55.00;;;;;;5010310;28;20030;-69
2022/07/20 06:16:26;;;;;;;10.38;4.47;;;24.90;55.00;;;;;;5010340;28;20033;-73
2022/07/20 06:18:52;;;;;;;8.45;4.03;;;25.10;54.60;;;;;;5011445;28;20037;-72
2022/07/20 06:21:18;;;;;;;9.32;3.00;;;25.20;54.10;;;;;;5010352;28;20026;-68
2022/07/20 06:23:43;;;;;;;7.50;2.78;;;25.40;53.60;;;;;;5011331;28;20026;-69
2022/07/20 06:26:09;;;;;;;10.82;3.33;;;25.50;53.70;;;;;;5010557;28;20146;-67
2022/07/20 06:28:36;;;;;;;6.95;3.13;;;25.50;53.60;;;;;;5011401;28;20168;-68
2022/07/20 06:31:06;;;;;;;10.40;3.13;;;25.60;53.70;;;;;;5011254;28;20033;-68
2022/07/20 06:33:32;;;;;;;9.90;3.10;;;25.80;53.70;;;;;;5011119;28;20056;-70
2022/07/20 06:35:58;;;;;;;7.10;2.63;;;25.90;53.50;;;;;;5010899;28;20054;-68
2022/07/20 06:38:24;;;;;;;6.78;2.80;;;26.00;53.50;;;;;;5011953;28;20063;-74
2022/07/20 06:40:50;;;;;;;6.75;2.90;;;26.10;53.30;;;;;;5010039;28;20037;-69
2022/07/20 06:43:15;;;;;;;7.10;2.60;;;26.20;53.20;;;;;;5011022;28;20049;-69
2022/07/20 06:45:41;;;;;;;9.30;2.88;;;26.40;53.30;;;;;;5010927;28;20451;-69
2022/07/20 06:48:07;;;;;;;7.13;3.10;;;26.40;53.30;;;;;;5011107;28;20376;-69
2022/07/20 06:50:32;;;;;;;6.65;2.80;;;26.60;53.10;;;;;;5010828;28;20127;-68
2022/07/20 06:52:58;;;;;;;17.92;10.30;;;26.60;53.10;;;;;;5008606;28;20033;-68
2022/07/20 06:55:23;;;;;;;9.13;4.75;;;26.70;53.10;;;;;;5010696;28;20104;-72
2022/07/20 06:57:49;;;;;;;8.80;3.15;;;26.70;53.10;;;;;;5011370;28;20494;-74
2022/07/20 07:00:15;;;;;;;8.15;2.80;;;26.80;53.00;;;;;;5011322;28;20030;-73
2022/07/20 07:02:40;;;;;;;11.02;2.67;;;26.90;52.80;;;;;;5011086;28;20053;-74
2022/07/20 07:05:07;;;;;;;12.50;2.85;;;27.00;52.70;;;;;;5011787;28;20156;-68
2022/07/20 07:07:32;;;;;;;7.53;2.80;;;27.10;52.60;;;;;;5011319;28;20026;-69
2022/07/20 07:09:58;;;;;;;6.13;2.72;;;27.30;52.40;;;;;;5011352;28;20045;-70
2022/07/20 07:12:24;;;;;;;10.98;2.92;;;27.50;52.00;;;;;;5011321;28;20041;-74
2022/07/20 07:14:50;;;;;;;7.75;2.90;;;27.70;51.70;;;;;;5013876;28;20042;-70
2022/07/20 07:17:16;;;;;;;7.07;3.25;;;27.70;51.30;;;;;;5016078;28;20360;-70
2022/07/20 07:19:42;;;;;;;10.75;3.97;;;27.90;50.70;;;;;;5015302;28;20113;-69
2022/07/20 07:22:08;;;;;;;8.88;3.13;;;28.00;50.10;;;;;;5015301;28;20424;-68
2022/07/20 07:24:34;;;;;;;7.38;3.15;;;28.10;49.40;;;;;;5013932;28;20029;-69
2022/07/20 07:26:59;;;;;;;4.60;2.72;;;28.20;49.40;;;;;;5014234;28;20047;-74
2022/07/20 07:29:26;;;;;;;8.77;2.78;;;28.50;49.00;;;;;;5015424;28;20113;-67
2022/07/20 07:31:58;;;;;;;5.22;2.60;;;28.60;48.90;;;;;;5013293;28;20034;-68
2022/07/20 07:34:25;;;;;;;8.05;2.92;;;28.60;48.40;;;;;;5014258;28;20040;-69
2022/07/20 07:36:51;;;;;;;5.10;2.88;;;28.70;48.30;;;;;;5014262;28;20038;-69
2022/07/20 07:39:16;;;;;;;6.15;2.67;;;28.90;47.90;;;;;;5014158;28;20088;-71
2022/07/20 07:41:42;;;;;;;6.07;2.55;;;29.00;47.80;;;;;;5014150;28;20065;-71
2022/07/20 07:44:08;;;;;;;5.93;2.45;;;29.20;48.10;;;;;;5014657;28;20033;-73
2022/07/20 07:46:33;;;;;;;9.40;4.38;;;29.20;48.20;;;;;;5014437;28;20105;-73
2022/07/20 07:48:59;;;;;;;8.73;3.70;;;29.30;47.90;;;;;;5013200;28;20341;-72
2022/07/20 07:51:25;;;;;;;7.25;3.10;;;29.40;47.60;;;;;;5014093;28;20340;-74
2022/07/20 07:53:50;;;;;;;5.95;2.70;;;29.60;48.00;;;;;;5013752;28;20084;-72
2022/07/20 07:56:16;;;;;;;5.55;2.70;;;29.80;47.20;;;;;;5014311;28;20072;-73
2022/07/20 07:58:42;;;;;;;4.93;2.58;;;30.00;47.10;;;;;;5013843;28;20095;-67
2022/07/20 08:01:11;;;;;;;6.88;2.83;;;30.40;47.00;;;;;;5012679;28;20045;-69
2022/07/20 08:03:36;;;;;;;8.55;2.55;;;30.70;46.90;;;;;;5012650;28;20026;-68
2022/07/20 08:06:06;;;;;;;6.22;2.50;;;30.90;47.00;;;;;;5013666;28;20040;-66
2022/07/20 08:08:32;;;;;;;5.85;2.85;;;31.10;46.20;;;;;;5013595;28;20050;-67
2022/07/20 08:10:58;;;;;;;8.52;2.90;;;31.20;45.60;;;;;;5014293;28;20061;-67
2022/07/20 08:13:24;;;;;;;10.25;3.08;;;31.30;45.40;;;;;;5014254;28;20046;-68
2022/07/20 08:15:50;;;;;;;3.40;2.35;;;31.60;46.30;;;;;;5012637;28;20095;-73
2022/07/20 08:18:16;;;;;;;4.47;2.50;;;31.90;44.80;;;;;;5013698;28;20022;-70
2022/07/20 08:20:42;;;;;;;12.48;2.70;;;32.40;44.60;;;;;;5013287;28;20029;-70
2022/07/20 08:23:08;;;;;;;4.55;2.83;;;32.80;44.80;;;;;;5013699;28;20014;-75
2022/07/20 08:25:34;;;;;;;6.97;2.97;;;33.30;43.50;;;;;;5012495;28;20475;-73
2022/07/20 08:28:14;;;;;;;6.05;2.78;;;33.90;42.80;;;;;;5013174;28;20030;-73
2022/07/20 08:30:42;;;;;;;9.50;2.92;;;34.40;42.60;;;;;;5012608;28;20072;-73
2022/07/20 08:33:09;;;;;;;8.20;3.00;;;34.80;42.10;;;;;;5012895;28;20109;-75
2022/07/20 08:35:35;;;;;;;10.23;2.67;;;35.50;41.40;;;;;;5013031;28;20037;-67
2022/07/20 08:38:00;;;;;;;12.27;2.45;;;36.10;41.10;;;;;;5013242;28;20167;-71
2022/07/20 08:40:30;;;;;;;9.80;3.00;;;36.80;40.60;;;;;;5012529;28;20112;-70
2022/07/20 08:42:56;;;;;;;5.75;2.50;;;37.40;39.00;;;;;;5012845;28;20038;-73
2022/07/20 08:45:23;;;;;;;3.87;2.70;;;38.30;39.20;;;;;;5009903;28;20429;-70
2022/07/20 08:47:49;;;;;;;6.68;2.63;;;39.20;37.30;;;;;;5020987;28;20550;-76
2022/07/20 08:50:30;;;;;;;5.95;2.53;;;40.10;35.70;;;;;;5013066;28;20034;-76
2022/07/20 08:52:57;;;;;;;5.72;2.50;;;40.60;36.30;;;;;;5012761;28;20030;-70
2022/07/20 08:55:23;;;;;;;;;;;40.90;34.80;;;;;;5011673;28;20129;-73
2022/07/20 08:57:49;;;;;;;5.15;2.72;;;41.50;34.10;;;;;;5012547;28;19910;-74
2022/07/20 09:00:15;;;;;;;3.03;2.50;;;42.00;34.10;;;;;;5012319;28;20049;-74
2022/07/20 09:03:03;;;;;;;3.38;2.83;;;42.50;32.90;;;;;;5011001;28;20356;-72
2022/07/20 09:05:40;;;;;;;8.73;3.22;;;42.60;32.50;;;;;;5012559;28;20017;-71
2022/07/20 09:08:10;;;;;;;6.70;2.90;;;42.90;31.40;;;;;;5012350;28;20061;-73
2022/07/20 09:10:40;;;;;;;4.97;2.50;;;42.90;32.00;;;;;;5012136;28;20054;-74
2022/07/20 09:13:11;;;;;;;3.72;2.63;;;43.40;31.30;;;;;;5012227;28;20026;-70
2022/07/20 09:15:50;;;;;;;7.25;2.97;;;43.70;31.30;;;;;;5011846;28;20237;-69
2022/07/20 09:18:21;;;;;;;10.23;2.95;;;44.00;30.00;;;;;;5011724;28;20025;-69
2022/07/20 09:20:50;;;;;;;4.47;2.35;;;44.00;29.20;;;;;;5011167;28;20121;-68
2022/07/20 09:23:24;;;;;;;7.55;2.50;;;43.80;29.20;;;;;;5012599;28;20033;-69
2022/07/20 09:26:12;;;;;;;7.93;2.75;;;43.90;29.90;;;;;;5011839;28;20099;-68
2022/07/20 09:28:51;;;;;;;18.13;14.73;;;44.10;29.10;;;;;;5012002;28;20449;-72
2022/07/20 09:31:19;;;;;;;14.63;12.73;;;43.70;29.50;;;;;;5012031;28;20045;-70
2022/07/20 09:34:12;;;;;;;5.18;3.05;;;43.90;29.80;;;;;;5010341;28;20073;-69
2022/07/20 09:36:40;;;;;;;10.40;2.90;;;43.90;28.90;;;;;;5011033;28;20030;-72
2022/07/20 09:39:13;;;;;;;4.88;2.55;;;43.30;28.70;;;;;;5010498;28;20526;-80
2022/07/20 09:41:41;;;;;;;63.40;43.60;;;43.40;28.90;;;;;;5010178;28;20064;-74
2022/07/20 09:44:10;;;;;;;392.65;314.83;;;43.70;29.50;;;;;;5011170;28;20018;-72
2022/07/20 09:46:38;;;;;;;8.93;4.47;;;43.60;29.30;;;;;;5011024;28;20117;-72
2022/07/20 09:49:10;;;;;;;9.32;2.70;;;42.60;28.70;;;;;;4993721;28;20116;-72
2022/07/20 09:51:39;;;;;;;5.25;2.63;;;42.40;29.50;;;;;;5011214;28;20455;-71
2022/07/20 09:54:14;;;;;;;6.70;3.13;;;42.00;30.00;;;;;;5011298;28;20040;-72
2022/07/20 09:56:45;;;;;;;7.28;3.00;;;41.70;30.40;;;;;;5011314;28;20045;-71
2022/07/20 09:59:13;;;;;;;8.35;2.55;;;41.30;30.00;;;;;;5011452;28;20448;-70
2022/07/20 10:01:41;;;;;;;4.20;2.78;;;40.80;30.90;;;;;;5010880;28;20042;-69
2022/07/20 10:04:09;;;;;;;7.78;2.63;;;40.60;31.50;;;;;;5011026;28;20056;-69
2022/07/20 10:06:38;;;;;;;7.10;2.67;;;40.20;30.90;;;;;;5011419;28;20155;-71
2022/07/20 10:09:05;;;;;;;6.93;2.80;;;40.10;31.30;;;;;;5011258;28;20116;-69
2022/07/20 10:11:31;;;;;;;3.38;2.72;;;39.80;31.60;;;;;;5010849;28;20029;-68
2022/07/20 10:14:01;;;;;;;8.53;2.80;;;39.70;31.90;;;;;;5011260;28;20416;-69
2022/07/20 10:16:44;;;;;;;5.97;2.88;;;39.40;31.70;;;;;;5010637;28;20041;-69
2022/07/20 10:19:10;;;;;;;5.90;3.13;;;39.20;31.90;;;;;;5010956;28;20037;-71
2022/07/20 10:21:46;;;;;;;8.23;3.13;;;39.00;32.30;;;;;;5010046;28;20053;-67
2022/07/20 10:24:27;;;;;;;9.68;4.28;;;38.90;32.10;;;;;;5009735;28;20465;-67
2022/07/20 10:27:19;;;;;;;7.38;3.13;;;38.90;32.10;;;;;;5010803;28;20104;-68
2022/07/20 10:29:53;;;;;;;7.13;2.92;;;38.60;32.00;;;;;;5010638;28;20037;-67
2022/07/20 10:32:23;;;;;;;6.45;2.60;;;38.60;32.50;;;;;;5011723;28;20399;-68
2022/07/20 10:34:54;;;;;;;8.27;3.30;;;38.70;32.60;;;;;;5010697;28;20534;-68
2022/07/20 10:37:35;;;;;;;4.15;2.60;;;38.70;31.90;;;;;;5010649;28;20476;-69
2022/07/20 10:40:04;;;;;;;8.13;3.13;;;38.50;32.20;;;;;;5010461;28;20057;-68
2022/07/20 10:42:31;;;;;;;6.97;2.92;;;38.50;32.20;;;;;;5010407;28;20042;-68
2022/07/20 10:45:19;;;;;;;5.28;2.85;;;38.50;32.10;;;;;;5010286;28;20038;-68
2022/07/20 10:47:46;;;;;;;4.80;2.40;;;38.40;32.00;;;;;;5010333;28;20116;-67
2022/07/20 10:50:21;;;;;;;5.25;2.92;;;38.40;31.40;;;;;;5009248;28;20080;-69
2022/07/20 10:52:49;;;;;;;9.77;2.83;;;38.30;31.10;;;;;;5010573;28;20026;-71
2022/07/20 10:55:35;;;;;;;7.07;2.72;;;38.30;30.70;;;;;;5009385;28;20058;-72
2022/07/20 10:58:12;;;;;;;6.85;2.97;;;38.20;30.60;;;;;;5009924;28;20153;-73
2022/07/20 11:00:42;;;;;;;8.75;2.80;;;38.10;30.60;;;;;;5010311;28;20037;-69
2022/07/20 11:03:16;;;;;;;6.32;3.08;;;38.00;30.60;;;;;;5010147;28;20029;-71
2022/07/20 11:05:44;;;;;;;9.27;3.22;;;38.00;31.00;;;;;;5010124;28;20571;-69
2022/07/20 11:08:11;;;;;;;10.57;3.15;;;38.00;30.60;;;;;;5011016;28;20049;-69
2022/07/20 11:10:38;;;;;;;3.63;2.83;;;37.90;30.70;;;;;;5010263;28;20512;-70
2022/07/20 11:13:05;;;;;;;;;;;37.80;30.90;;;;;;5010763;28;20037;-75
2022/07/20 11:15:45;;;;;;;9.52;5.80;;;37.80;31.20;;;;;;5010243;28;19991;-72
2022/07/20 11:18:13;;;;;;;8.50;2.95;;;37.80;31.10;;;;;;5010215;28;20120;-72
2022/07/20 11:20:47;;;;;;;11.30;3.10;;;37.60;31.00;;;;;;5010442;28;20030;-71
2022/07/20 11:23:13;;;;;;;6.95;2.75;;;37.70;31.50;;;;;;5010588;28;20344;-70
2022/07/20 11:25:59;;;;;;;4.82;2.78;;;37.70;31.20;;;;;;5010033;28;20121;-71
2022/07/20 11:28:24;;;;;;;4.50;2.75;;;37.60;31.30;;;;;;5010061;28;20467;-72
2022/07/20 11:30:51;;;;;;;9.50;3.28;;;37.60;30.90;;;;;;5010169;28;20030;-71
2022/07/20 11:33:27;;;;;;;6.53;3.15;;;37.60;31.40;;;;;;5009993;28;20037;-68
2022/07/20 11:35:55;;;;;;;6.38;2.80;;;37.60;31.40;;;;;;5009965;28;20479;-71
2022/07/20 11:38:21;;;;;;;8.15;3.58;;;37.60;31.20;;;;;;5010228;28;20030;-70
2022/07/20 11:41:01;;;;;;;8.82;3.60;;;37.50;31.10;;;;;;5010394;28;20022;-72
2022/07/20 11:43:28;;;;;;;5.70;2.72;;;37.50;30.60;;;;;;5010556;28;20033;-70
2022/07/20 11:45:53;;;;;;;5.78;2.80;;;37.50;30.80;;;;;;5010005;28;20038;-69
2022/07/20 11:48:22;;;;;;;9.13;2.80;;;37.40;31.10;;;;;;5010264;28;20431;-71
2022/07/20 11:50:48;;;;;;;8.55;3.10;;;37.40;30.50;;;;;;5010423;28;20117;-70
2022/07/20 11:53:29;;;;;;;6.55;2.95;;;37.30;30.30;;;;;;5010948;28;20227;-71
2022/07/20 11:55:57;;;;;;;6.13;3.10;;;37.30;30.80;;;;;;5010108;28;20089;-69
2022/07/20 11:58:34;;;;;;;8.02;3.38;;;37.20;30.70;;;;;;5010013;28;20486;-71
2022/07/20 12:01:05;;;;;;;5.88;3.17;;;37.30;30.60;;;;;;5011079;28;20443;-71
2022/07/20 12:03:36;;;;;;;4.43;2.42;;;37.30;30.90;;;;;;5013668;28;20037;-72
2022/07/20 12:06:08;;;;;;;3.90;2.70;;;37.30;30.90;;;;;;5013228;28;20033;-71
2022/07/20 12:08:34;;;;;;;8.68;2.83;;;37.40;31.10;;;;;;5013411;28;20021;-72
2022/07/20 12:11:00;;;;;;;3.47;2.60;;;37.40;31.20;;;;;;5013690;28;20029;-71
2022/07/20 12:13:27;;;;;;;10.40;3.25;;;37.30;30.40;;;;;;5013356;28;20034;-74
2022/07/20 12:15:59;;;;;;;11.80;3.55;;;37.30;30.60;;;;;;5013130;28;20213;-76
2022/07/20 12:18:37;;;;;;;3.75;2.65;;;37.40;30.40;;;;;;5012031;28;20056;-75
2022/07/20 12:21:08;;;;;;;5.88;2.70;;;37.30;30.10;;;;;;5013342;28;20022;-73
2022/07/20 12:23:34;;;;;;;6.07;2.95;;;37.50;29.90;;;;;;5013293;28;20052;-80
2022/07/20 12:26:01;;;;;;;770.67;558.67;;;37.40;30.00;;;;;;5012506;28;20037;-72
2022/07/20 12:28:37;;;;;;;30.08;20.38;;;37.40;29.70;;;;;;5013457;28;20091;-75
2022/07/20 12:31:14;;;;;;;76.78;52.42;;;37.40;29.70;;;;;;5011780;28;20037;-71
2022/07/20 12:34:00;;;;;;;14.15;9.43;;;37.40;30.00;;;;;;5012868;28;20443;-73
2022/07/20 12:36:33;;;;;;;5.30;2.97;;;37.30;31.80;;;;;;5012914;28;20030;-73
2022/07/20 12:38:59;;;;;;;3.17;2.42;;;37.30;29.90;;;;;;5012912;28;20029;-73
2022/07/20 12:41:25;;;;;;;7.82;2.53;;;37.10;29.50;;;;;;5012219;28;20022;-69
2022/07/20 12:43:50;;;;;;;5.53;2.22;;;37.10;29.90;;;;;;5012957;28;20030;-70
2022/07/20 12:46:16;;;;;;;6.20;3.28;;;37.10;29.70;;;;;;5012801;28;20414;-73
2022/07/20 12:48:47;;;;;;;4.82;2.75;;;37.20;30.10;;;;;;5012622;28;20076;-73
2022/07/20 12:51:14;;;;;;;6.93;3.20;;;37.20;30.00;;;;;;5012807;28;20065;-75